sensor_id;sensor_type;location;lat;lon;timestamp;pressure;altitude;pressure_sealevel;temperature;humidity
55679;BME280;41573;51.446;-2.018;2023-07-09T00:02:11;102533.78;;;17.78;nan
55679;BME280;41573;51.446;-2.018;2023-07-09T00:04:36;102532.72;;;17.80;nan
55679;BME280;41573;51.446;-2.018;2023-07-09T00:07:03;102521.25;;;17.77;nan
55679;BME280;41573;51.446;-2.018;2023-07-09T00:09:29;102514.69;;;17.66;nan
55679;BME280;41573;51.446;-2.018;2023-07-09T00:11:54;102523.69;;;17.51;nan
55679;BME280;41573;51.446;-2.018;2023-07-09T00:14:21;102520.41;;;17.46;nan
55679;BME280;41573;51.446;-2.018;2023-07-09T00:16:46;102527.03;;;17.40;nan
55679;BME280;41573;51.446;-2.018;2023-07-09T00:19:17;102522.50;;;17.40;nan
55679;BME280;41573;51.446;-2.018;2023-07-09T00:21:45;102527.88;;;17.40;nan
55679;BME280;41573;51.446;-2.018;2023-07-09T00:24:14;102535.00;;;17.42;nan
55679;BME280;41573;51.446;-2.018;2023-07-09T00:26:40;102541.94;;;17.46;nan
55679;BME280;41573;51.446;-2.018;2023-07-09T00:29:12;102532.31;;;17.42;nan
55679;BME280;41573;51.446;-2.018;2023-07-09T00:31:38;102547.09;;;17.34;nan
55679;BME280;41573;51.446;-2.018;2023-07-09T00:34:07;102539.09;;;17.33;nan
55679;BME280;41573;51.446;-2.018;2023-07-09T00:36:33;102543.03;;;17.27;nan
55679;BME280;41573;51.446;-2.018;2023-07-09T00:38:58;102555.09;;;17.20;nan
55679;BME280;41573;51.446;-2.018;2023-07-09T00:41:36;102550.84;;;17.16;nan
55679;BME280;41573;51.446;-2.018;2023-07-09T00:44:31;102551.97;;;17.12;nan
55679;BME280;41573;51.446;-2.018;2023-07-09T00:49:32;102550.50;;;17.06;nan
55679;BME280;41573;51.446;-2.018;2023-07-09T00:52:01;102546.84;;;17.07;nan
55679;BME280;41573;51.446;-2.018;2023-07-09T00:54:28;102546.84;;;17.07;nan
55679;BME280;41573;51.446;-2.018;2023-07-09T00:57:04;102543.97;;;17.10;nan
55679;BME280;41573;51.446;-2.018;2023-07-09T00:59:31;102549.53;;;17.07;nan
55679;BME280;41573;51.446;-2.018;2023-07-09T01:01:58;102544.59;;;16.99;nan
55679;BME280;41573;51.446;-2.018;2023-07-09T01:04:27;102549.00;;;17.00;nan
55679;BME280;41573;51.446;-2.018;2023-07-09T01:06:55;102553.50;;;17.00;nan
55679;BME280;41573;51.446;-2.018;2023-07-09T01:09:23;102560.72;;;16.99;nan
55679;BME280;41573;51.446;-2.018;2023-07-09T01:11:48;102556.16;;;17.01;nan
55679;BME280;41573;51.446;-2.018;2023-07-09T01:14:16;102563.16;;;17.04;nan
55679;BME280;41573;51.446;-2.018;2023-07-09T01:16:52;102564.22;;;17.01;nan
55679;BME280;41573;51.446;-2.018;2023-07-09T01:19:26;102558.84;;;17.01;nan
55679;BME280;41573;51.446;-2.018;2023-07-09T01:21:58;102567.78;;;17.02;nan
55679;BME280;41573;51.446;-2.018;2023-07-09T01:24:48;102572.13;;;17.04;nan
55679;BME280;41573;51.446;-2.018;2023-07-09T01:27:15;102576.88;;;16.99;nan
55679;BME280;41573;51.446;-2.018;2023-07-09T01:29:41;102573.41;;;16.97;nan
55679;BME280;41573;51.446;-2.018;2023-07-09T01:32:08;102584.19;;;16.97;nan
55679;BME280;41573;51.446;-2.018;2023-07-09T01:34:35;102582.25;;;16.99;nan
55679;BME280;41573;51.446;-2.018;2023-07-09T01:37:00;102576.69;;;17.02;nan
55679;BME280;41573;51.446;-2.018;2023-07-09T01:39:26;102584.19;;;16.97;nan
55679;BME280;41573;51.446;-2.018;2023-07-09T01:41:54;102576.63;;;17.04;nan
55679;BME280;41573;51.446;-2.018;2023-07-09T01:44:19;102575.00;;;17.01;nan
55679;BME280;41573;51.446;-2.018;2023-07-09T01:46:44;102577.50;;;17.04;nan
55679;BME280;41573;51.446;-2.018;2023-07-09T01:49:11;102580.19;;;17.04;nan
55679;BME280;41573;51.446;-2.018;2023-07-09T01:51:37;102575.00;;;17.01;nan
55679;BME280;41573;51.446;-2.018;2023-07-09T01:54:03;102582.25;;;16.99;nan
55679;BME280;41573;51.446;-2.018;2023-07-09T01:56:28;102578.25;;;16.91;nan
55679;BME280;41573;51.446;-2.018;2023-07-09T01:58:54;102578.94;;;16.94;nan
55679;BME280;41573;51.446;-2.018;2023-07-09T02:01:28;102578.19;;;16.92;nan
55679;BME280;41573;51.446;-2.018;2023-07-09T02:03:54;102580.94;;;16.91;nan
55679;BME280;41573;51.446;-2.018;2023-07-09T02:06:19;102585.38;;;16.92;nan
55679;BME280;41573;51.446;-2.018;2023-07-09T02:08:45;102584.50;;;16.91;nan
55679;BME280;41573;51.446;-2.018;2023-07-09T02:11:11;102593.56;;;16.90;nan
55679;BME280;41573;51.446;-2.018;2023-07-09T02:13:36;102589.88;;;16.91;nan
55679;BME280;41573;51.446;-2.018;2023-07-09T02:16:01;102593.56;;;16.90;nan
55679;BME280;41573;51.446;-2.018;2023-07-09T02:18:28;102593.38;;;16.93;nan
55679;BME280;41573;51.446;-2.018;2023-07-09T02:20:54;102609.53;;;16.93;nan
55679;BME280;41573;51.446;-2.018;2023-07-09T02:23:20;102616.78;;;16.91;nan
55679;BME280;41573;51.446;-2.018;2023-07-09T02:25:45;102613.66;;;16.83;nan
55679;BME280;41573;51.446;-2.018;2023-07-09T02:28:11;102604.59;;;16.84;nan
55679;BME280;41573;51.446;-2.018;2023-07-09T02:30:36;102612.06;;;16.79;nan
55679;BME280;41573;51.446;-2.018;2023-07-09T02:33:01;102614.31;;;16.70;nan
55679;BME280;41573;51.446;-2.018;2023-07-09T02:35:27;102611.53;;;16.72;nan
55679;BME280;41573;51.446;-2.018;2023-07-09T02:37:52;102620.53;;;16.71;nan
55679;BME280;41573;51.446;-2.018;2023-07-09T02:40:17;102617.84;;;16.71;nan
55679;BME280;41573;51.446;-2.018;2023-07-09T02:42:43;102616.91;;;16.72;nan
55679;BME280;41573;51.446;-2.018;2023-07-09T02:45:09;102616.06;;;16.71;nan
55679;BME280;41573;51.446;-2.018;2023-07-09T02:47:34;102615.97;;;16.73;nan
55679;BME280;41573;51.446;-2.018;2023-07-09T02:50:00;102610.50;;;16.75;nan
55679;BME280;41573;51.446;-2.018;2023-07-09T02:52:25;102607.09;;;16.71;nan
55679;BME280;41573;51.446;-2.018;2023-07-09T02:54:52;102607.09;;;16.71;nan
55679;BME280;41573;51.446;-2.018;2023-07-09T02:57:17;102604.56;;;16.68;nan
55679;BME280;41573;51.446;-2.018;2023-07-09T02:59:42;102606.22;;;16.70;nan
55679;BME280;41573;51.446;-2.018;2023-07-09T03:02:08;102599.28;;;16.66;nan
55679;BME280;41573;51.446;-2.018;2023-07-09T03:04:33;102604.75;;;16.65;nan
55679;BME280;41573;51.446;-2.018;2023-07-09T03:06:59;102609.22;;;16.64;nan
55679;BME280;41573;51.446;-2.018;2023-07-09T03:09:25;102618.03;;;16.68;nan
55679;BME280;41573;51.446;-2.018;2023-07-09T03:11:50;102620.00;;;16.64;nan
55679;BME280;41573;51.446;-2.018;2023-07-09T03:14:16;102627.28;;;16.62;nan
55679;BME280;41573;51.446;-2.018;2023-07-09T03:16:42;102617.56;;;16.60;nan
55679;BME280;41573;51.446;-2.018;2023-07-09T03:19:07;102609.56;;;16.58;nan
55679;BME280;41573;51.446;-2.018;2023-07-09T03:21:33;102615.13;;;16.55;nan
55679;BME280;41573;51.446;-2.018;2023-07-09T03:23:58;102613.38;;;16.54;nan
55679;BME280;41573;51.446;-2.018;2023-07-09T03:26:24;102615.28;;;16.52;nan
55679;BME280;41573;51.446;-2.018;2023-07-09T03:28:51;102610.78;;;16.52;nan
55679;BME280;41573;51.446;-2.018;2023-07-09T03:31:17;102607.22;;;16.52;nan
55679;BME280;41573;51.446;-2.018;2023-07-09T03:33:42;102611.63;;;16.53;nan
55679;BME280;41573;51.446;-2.018;2023-07-09T03:36:08;102624.13;;;16.54;nan
55679;BME280;41573;51.446;-2.018;2023-07-09T03:38:33;102617.81;;;16.55;nan
55679;BME280;41573;51.446;-2.018;2023-07-09T03:40:58;102617.81;;;16.55;nan
55679;BME280;41573;51.446;-2.018;2023-07-09T03:43:24;102616.22;;;16.51;nan
55679;BME280;41573;51.446;-2.018;2023-07-09T03:45:50;102625.31;;;16.48;nan
55679;BME280;41573;51.446;-2.018;2023-07-09T03:48:17;102628.09;;;16.47;nan
55679;BME280;41573;51.446;-2.018;2023-07-09T03:50:44;102623.75;;;16.44;nan
55679;BME280;41573;51.446;-2.018;2023-07-09T03:53:10;102622.25;;;16.38;nan
55679;BME280;41573;51.446;-2.018;2023-07-09T03:55:35;102617.84;;;16.37;nan
55679;BME280;41573;51.446;-2.018;2023-07-09T03:58:01;102607.22;;;16.34;nan
55679;BME280;41573;51.446;-2.018;2023-07-09T04:00:28;102608.19;;;16.33;nan
55679;BME280;41573;51.446;-2.018;2023-07-09T04:02:53;102608.66;;;16.42;nan
55679;BME280;41573;51.446;-2.018;2023-07-09T04:05:22;102606.13;;;16.38;nan
55679;BME280;41573;51.446;-2.018;2023-07-09T04:07:48;102610.88;;;16.33;nan
55679;BME280;41573;51.446;-2.018;2023-07-09T04:10:13;102616.72;;;16.24;nan
55679;BME280;41573;51.446;-2.018;2023-07-09T04:12:39;102626.22;;;16.14;nan
55679;BME280;41573;51.446;-2.018;2023-07-09T04:15:05;102619.25;;;16.10;nan
55679;BME280;41573;51.446;-2.018;2023-07-09T04:17:31;102630.97;;;16.09;nan
55679;BME280;41573;51.446;-2.018;2023-07-09T04:19:56;102642.88;;;16.03;nan
55679;BME280;41573;51.446;-2.018;2023-07-09T04:22:21;102651.19;;;15.98;nan
55679;BME280;41573;51.446;-2.018;2023-07-09T04:24:47;102654.97;;;15.94;nan
55679;BME280;41573;51.446;-2.018;2023-07-09T04:27:12;102662.34;;;15.91;nan
55679;BME280;41573;51.446;-2.018;2023-07-09T04:29:39;102657.91;;;15.90;nan
55679;BME280;41573;51.446;-2.018;2023-07-09T04:32:06;102652.78;;;16.02;nan
55679;BME280;41573;51.446;-2.018;2023-07-09T04:34:32;102637.13;;;16.11;nan
55679;BME280;41573;51.446;-2.018;2023-07-09T04:36:57;102638.81;;;16.13;nan
55679;BME280;41573;51.446;-2.018;2023-07-09T04:39:22;102621.72;;;16.14;nan
55679;BME280;41573;51.446;-2.018;2023-07-09T04:41:48;102627.97;;;16.15;nan
55679;BME280;41573;51.446;-2.018;2023-07-09T04:44:14;102633.19;;;16.18;nan
55679;BME280;41573;51.446;-2.018;2023-07-09T04:46:39;102635.06;;;16.16;nan
55679;BME280;41573;51.446;-2.018;2023-07-09T04:49:04;102622.03;;;16.26;nan
55679;BME280;41573;51.446;-2.018;2023-07-09T04:51:30;102591.59;;;16.25;nan
55679;BME280;41573;51.446;-2.018;2023-07-09T04:53:56;102590.66;;;16.26;nan
55679;BME280;41573;51.446;-2.018;2023-07-09T04:56:21;102616.25;;;16.33;nan
55679;BME280;41573;51.446;-2.018;2023-07-09T04:58:46;102622.59;;;16.32;nan
55679;BME280;41573;51.446;-2.018;2023-07-09T05:01:12;102630.22;;;16.40;nan
55679;BME280;41573;51.446;-2.018;2023-07-09T05:03:37;102625.09;;;16.35;nan
55679;BME280;41573;51.446;-2.018;2023-07-09T05:06:04;102616.88;;;16.38;nan
55679;BME280;41573;51.446;-2.018;2023-07-09T05:08:29;102603.75;;;16.32;nan
55679;BME280;41573;51.446;-2.018;2023-07-09T05:10:56;102589.38;;;16.33;nan
55679;BME280;41573;51.446;-2.018;2023-07-09T05:13:22;102580.19;;;16.37;nan
55679;BME280;41573;51.446;-2.018;2023-07-09T05:15:48;102561.38;;;16.37;nan
55679;BME280;41573;51.446;-2.018;2023-07-09T05:18:14;102541.84;;;16.34;nan
55679;BME280;41573;51.446;-2.018;2023-07-09T05:20:40;102508.38;;;16.40;nan
55679;BME280;41573;51.446;-2.018;2023-07-09T05:23:07;102486.94;;;16.38;nan
55679;BME280;41573;51.446;-2.018;2023-07-09T05:25:33;102459.22;;;16.37;nan
55679;BME280;41573;51.446;-2.018;2023-07-09T05:27:58;102436.03;;;16.35;nan
55679;BME280;41573;51.446;-2.018;2023-07-09T05:30:24;102430.13;;;16.28;nan
55679;BME280;41573;51.446;-2.018;2023-07-09T05:32:49;102420.22;;;16.29;nan
55679;BME280;41573;51.446;-2.018;2023-07-09T05:35:15;102414.84;;;16.29;nan
55679;BME280;41573;51.446;-2.018;2023-07-09T05:37:40;102421.28;;;16.26;nan
55679;BME280;41573;51.446;-2.018;2023-07-09T05:40:07;102432.03;;;16.26;nan
55679;BME280;41573;51.446;-2.018;2023-07-09T05:42:33;102418.69;;;16.25;nan
55679;BME280;41573;51.446;-2.018;2023-07-09T05:44:59;102408.63;;;16.28;nan
55679;BME280;41573;51.446;-2.018;2023-07-09T05:47:25;102398.22;;;16.38;nan
55679;BME280;41573;51.446;-2.018;2023-07-09T05:49:51;102378.44;;;16.39;nan
55679;BME280;41573;51.446;-2.018;2023-07-09T05:52:21;102354.59;;;16.49;nan
55679;BME280;41573;51.446;-2.018;2023-07-09T05:54:49;102348.69;;;16.42;nan
55679;BME280;41573;51.446;-2.018;2023-07-09T05:57:15;102348.59;;;16.44;nan
55679;BME280;41573;51.446;-2.018;2023-07-09T05:59:40;102323.38;;;16.46;nan
55679;BME280;41573;51.446;-2.018;2023-07-09T06:02:10;102319.63;;;16.49;nan
55679;BME280;41573;51.446;-2.018;2023-07-09T06:04:36;102288.03;;;16.52;nan
55679;BME280;41573;51.446;-2.018;2023-07-09T06:07:02;102289.00;;;16.51;nan
55679;BME280;41573;51.446;-2.018;2023-07-09T06:09:29;102301.22;;;16.57;nan
55679;BME280;41573;51.446;-2.018;2023-07-09T06:11:54;102288.56;;;16.59;nan
55679;BME280;41573;51.446;-2.018;2023-07-09T06:14:20;102279.34;;;16.63;nan
55679;BME280;41573;51.446;-2.018;2023-07-09T06:16:45;102277.63;;;16.62;nan
55679;BME280;41573;51.446;-2.018;2023-07-09T06:19:10;102252.66;;;16.60;nan
55679;BME280;41573;51.446;-2.018;2023-07-09T06:21:36;102251.84;;;16.58;nan
55679;BME280;41573;51.446;-2.018;2023-07-09T06:24:01;102248.31;;;16.58;nan
55679;BME280;41573;51.446;-2.018;2023-07-09T06:26:26;102227.66;;;16.58;nan
55679;BME280;41573;51.446;-2.018;2023-07-09T06:28:52;102204.22;;;16.60;nan
55679;BME280;41573;51.446;-2.018;2023-07-09T06:31:17;102211.31;;;16.61;nan
55679;BME280;41573;51.446;-2.018;2023-07-09T06:33:46;102203.06;;;16.64;nan
55679;BME280;41573;51.446;-2.018;2023-07-09T06:36:12;102207.31;;;16.68;nan
55679;BME280;41573;51.446;-2.018;2023-07-09T06:38:37;102196.44;;;16.70;nan
55679;BME280;41573;51.446;-2.018;2023-07-09T06:41:03;102192.72;;;16.72;nan
55679;BME280;41573;51.446;-2.018;2023-07-09T06:43:28;102177.56;;;16.71;nan
55679;BME280;41573;51.446;-2.018;2023-07-09T06:45:56;102203.47;;;16.72;nan
55679;BME280;41573;51.446;-2.018;2023-07-09T06:48:22;102203.66;;;16.69;nan
55679;BME280;41573;51.446;-2.018;2023-07-09T06:50:48;102203.28;;;16.76;nan
55679;BME280;41573;51.446;-2.018;2023-07-09T06:53:14;102198.47;;;16.66;nan
55679;BME280;41573;51.446;-2.018;2023-07-09T06:55:40;102215.75;;;16.62;nan
55679;BME280;41573;51.446;-2.018;2023-07-09T06:58:06;102210.47;;;16.61;nan
55679;BME280;41573;51.446;-2.018;2023-07-09T07:00:31;102233.03;;;16.58;nan
55679;BME280;41573;51.446;-2.018;2023-07-09T07:02:58;102242.22;;;16.54;nan
55679;BME280;41573;51.446;-2.018;2023-07-09T07:05:23;102244.72;;;16.57;nan
55679;BME280;41573;51.446;-2.018;2023-07-09T07:07:48;102263.41;;;16.44;nan
55679;BME280;41573;51.446;-2.018;2023-07-09T07:10:14;102255.63;;;16.40;nan
55679;BME280;41573;51.446;-2.018;2023-07-09T07:12:44;102251.72;;;16.45;nan
55679;BME280;41573;51.446;-2.018;2023-07-09T07:15:10;102233.59;;;16.49;nan
55679;BME280;41573;51.446;-2.018;2023-07-09T07:17:36;102237.28;;;16.62;nan
55679;BME280;41573;51.446;-2.018;2023-07-09T07:20:02;102240.16;;;16.59;nan
55679;BME280;41573;51.446;-2.018;2023-07-09T07:22:27;102232.25;;;16.56;nan
55679;BME280;41573;51.446;-2.018;2023-07-09T07:24:53;102215.00;;;16.60;nan
55679;BME280;41573;51.446;-2.018;2023-07-09T07:27:18;102216.16;;;16.70;nan
55679;BME280;41573;51.446;-2.018;2023-07-09T07:29:43;102206.66;;;16.79;nan
55679;BME280;41573;51.446;-2.018;2023-07-09T07:32:10;102191.13;;;16.84;nan
55679;BME280;41573;51.446;-2.018;2023-07-09T07:34:36;102183.81;;;16.86;nan
55679;BME280;41573;51.446;-2.018;2023-07-09T07:37:01;102186.22;;;16.91;nan
55679;BME280;41573;51.446;-2.018;2023-07-09T07:39:27;102195.09;;;16.93;nan
55679;BME280;41573;51.446;-2.018;2023-07-09T07:41:52;102197.59;;;16.96;nan
55679;BME280;41573;51.446;-2.018;2023-07-09T07:44:17;102194.41;;;17.04;nan
55679;BME280;41573;51.446;-2.018;2023-07-09T07:46:43;102197.78;;;17.08;nan
55679;BME280;41573;51.446;-2.018;2023-07-09T07:49:08;102194.16;;;17.09;nan
55679;BME280;41573;51.446;-2.018;2023-07-09T07:51:34;102202.38;;;17.05;nan
55679;BME280;41573;51.446;-2.018;2023-07-09T07:53:59;102206.25;;;17.01;nan
55679;BME280;41573;51.446;-2.018;2023-07-09T07:56:24;102213.94;;;17.08;nan
55679;BME280;41573;51.446;-2.018;2023-07-09T07:58:51;102213.94;;;17.08;nan
55679;BME280;41573;51.446;-2.018;2023-07-09T08:01:16;102218.38;;;17.09;nan
55679;BME280;41573;51.446;-2.018;2023-07-09T08:03:42;102220.19;;;17.08;nan
55679;BME280;41573;51.446;-2.018;2023-07-09T08:06:07;102212.19;;;17.06;nan
55679;BME280;41573;51.446;-2.018;2023-07-09T08:08:32;102205.56;;;17.12;nan
55679;BME280;41573;51.446;-2.018;2023-07-09T08:11:05;102199.91;;;17.17;nan
55679;BME280;41573;51.446;-2.018;2023-07-09T08:13:36;102200.88;;;17.16;nan
55679;BME280;41573;51.446;-2.018;2023-07-09T08:16:02;102205.13;;;17.20;nan
55679;BME280;41573;51.446;-2.018;2023-07-09T08:18:27;102215.78;;;17.21;nan
55679;BME280;41573;51.446;-2.018;2023-07-09T08:20:53;102211.06;;;17.25;nan
55679;BME280;41573;51.446;-2.018;2023-07-09T08:23:18;102216.06;;;17.31;nan
55679;BME280;41573;51.446;-2.018;2023-07-09T08:25:44;102213.09;;;17.36;nan
55679;BME280;41573;51.446;-2.018;2023-07-09T08:28:09;102217.22;;;17.42;nan
55679;BME280;41573;51.446;-2.018;2023-07-09T08:30:35;102220.28;;;17.50;nan
55679;BME280;41573;51.446;-2.018;2023-07-09T08:33:01;102210.44;;;17.63;nan
55679;BME280;41573;51.446;-2.018;2023-07-09T08:35:26;102209.66;;;17.75;nan
55679;BME280;41573;51.446;-2.018;2023-07-09T08:37:52;102205.69;;;17.96;nan
55679;BME280;41573;51.446;-2.018;2023-07-09T08:40:17;102210.94;;;18.12;nan
55679;BME280;41573;51.446;-2.018;2023-07-09T08:42:45;102216.56;;;18.21;nan
55679;BME280;41573;51.446;-2.018;2023-07-09T08:45:23;102236.91;;;18.40;nan
55679;BME280;41573;51.446;-2.018;2023-07-09T08:48:05;102240.22;;;18.58;nan
55679;BME280;41573;51.446;-2.018;2023-07-09T08:50:45;102244.56;;;18.73;nan
55679;BME280;41573;51.446;-2.018;2023-07-09T08:53:24;102253.47;;;18.88;nan
55679;BME280;41573;51.446;-2.018;2023-07-09T08:55:51;102275.44;;;18.82;nan
55679;BME280;41573;51.446;-2.018;2023-07-09T08:58:28;102323.03;;;19.10;nan
55679;BME280;41573;51.446;-2.018;2023-07-09T09:00:55;102355.22;;;19.14;nan
55679;BME280;41573;51.446;-2.018;2023-07-09T09:03:28;102376.97;;;19.25;nan
55679;BME280;41573;51.446;-2.018;2023-07-09T09:05:56;102381.31;;;19.40;nan
55679;BME280;41573;51.446;-2.018;2023-07-09T09:11:22;102397.22;;;19.71;nan
55679;BME280;41573;51.446;-2.018;2023-07-09T09:13:55;102388.66;;;19.64;nan
55679;BME280;41573;51.446;-2.018;2023-07-09T09:16:33;102387.25;;;19.58;nan
55679;BME280;41573;51.446;-2.018;2023-07-09T09:19:01;102381.84;;;19.45;nan
55679;BME280;41573;51.446;-2.018;2023-07-09T09:21:35;102373.44;;;19.63;nan
55679;BME280;41573;51.446;-2.018;2023-07-09T09:24:13;102365.44;;;19.74;nan
55679;BME280;41573;51.446;-2.018;2023-07-09T09:26:41;102365.84;;;19.94;nan
55679;BME280;41573;51.446;-2.018;2023-07-09T09:29:15;102359.38;;;19.84;nan
55679;BME280;41573;51.446;-2.018;2023-07-09T09:31:43;102354.63;;;20.00;nan
55679;BME280;41573;51.446;-2.018;2023-07-09T09:34:18;102344.34;;;19.92;nan
55679;BME280;41573;51.446;-2.018;2023-07-09T09:36:44;102331.47;;;19.96;nan
55679;BME280;41573;51.446;-2.018;2023-07-09T09:39:10;102324.25;;;20.21;nan
55679;BME280;41573;51.446;-2.018;2023-07-09T09:41:36;102331.91;;;20.40;nan
55679;BME280;41573;51.446;-2.018;2023-07-09T09:44:02;102326.47;;;20.40;nan
55679;BME280;41573;51.446;-2.018;2023-07-09T09:46:30;102322.78;;;20.41;nan
55679;BME280;41573;51.446;-2.018;2023-07-09T09:48:59;102317.03;;;20.45;nan
55679;BME280;41573;51.446;-2.018;2023-07-09T09:51:26;102315.25;;;20.57;nan
55679;BME280;41573;51.446;-2.018;2023-07-09T09:53:57;102312.78;;;20.78;nan
55679;BME280;41573;51.446;-2.018;2023-07-09T09:56:30;102312.44;;;20.83;nan
55679;BME280;41573;51.446;-2.018;2023-07-09T09:58:57;102312.13;;;20.75;nan
55679;BME280;41573;51.446;-2.018;2023-07-09T10:01:31;102305.03;;;20.74;nan
55679;BME280;41573;51.446;-2.018;2023-07-09T10:04:01;102307.38;;;20.78;nan
55679;BME280;41573;51.446;-2.018;2023-07-09T10:06:38;102291.88;;;20.92;nan
55679;BME280;41573;51.446;-2.018;2023-07-09T10:11:58;102283.03;;;20.90;nan
55679;BME280;41573;51.446;-2.018;2023-07-09T10:17:23;102279.63;;;21.10;nan
55679;BME280;41573;51.446;-2.018;2023-07-09T10:22:43;102260.69;;;21.22;nan
55679;BME280;41573;51.446;-2.018;2023-07-09T10:28:18;102262.38;;;21.00;nan
55679;BME280;41573;51.446;-2.018;2023-07-09T10:30:57;102258.06;;;20.97;nan
55679;BME280;41573;51.446;-2.018;2023-07-09T10:33:55;102260.88;;;20.96;nan
55679;BME280;41573;51.446;-2.018;2023-07-09T10:41:31;102250.78;;;20.87;nan
55679;BME280;41573;51.446;-2.018;2023-07-09T10:44:00;102252.50;;;20.88;nan
55679;BME280;41573;51.446;-2.018;2023-07-09T10:46:32;102252.91;;;21.06;nan
55679;BME280;41573;51.446;-2.018;2023-07-09T10:49:00;102254.75;;;21.05;nan
55679;BME280;41573;51.446;-2.018;2023-07-09T10:51:57;102242.19;;;21.04;nan
55679;BME280;41573;51.446;-2.018;2023-07-09T10:54:43;102236.53;;;21.18;nan
55679;BME280;41573;51.446;-2.018;2023-07-09T10:57:21;102225.88;;;21.62;nan
55679;BME280;41573;51.446;-2.018;2023-07-09T10:59:50;102225.34;;;21.68;nan
55679;BME280;41573;51.446;-2.018;2023-07-09T11:02:28;102229.03;;;21.67;nan
55679;BME280;41573;51.446;-2.018;2023-07-09T11:05:01;102221.03;;;21.77;nan
55679;BME280;41573;51.446;-2.018;2023-07-09T11:07:35;102214.88;;;21.64;nan
55679;BME280;41573;51.446;-2.018;2023-07-09T11:10:07;102205.13;;;21.73;nan
55679;BME280;41573;51.446;-2.018;2023-07-09T11:12:54;102195.63;;;21.78;nan
55679;BME280;41573;51.446;-2.018;2023-07-09T11:15:27;102190.19;;;21.90;nan
55679;BME280;41573;51.446;-2.018;2023-07-09T11:17:57;102184.97;;;22.42;nan
55679;BME280;41573;51.446;-2.018;2023-07-09T11:20:25;102195.81;;;22.42;nan
55679;BME280;41573;51.446;-2.018;2023-07-09T11:22:54;102179.94;;;22.26;nan
55679;BME280;41573;51.446;-2.018;2023-07-09T11:25:47;102175.56;;;22.13;nan
55679;BME280;41573;51.446;-2.018;2023-07-09T11:28:13;102182.84;;;22.01;nan
55679;BME280;41573;51.446;-2.018;2023-07-09T11:30:53;102185.13;;;21.96;nan
55679;BME280;41573;51.446;-2.018;2023-07-09T11:33:26;102188.72;;;21.85;nan
55679;BME280;41573;51.446;-2.018;2023-07-09T11:36:10;102183.59;;;21.60;nan
55679;BME280;41573;51.446;-2.018;2023-07-09T11:38:40;102182.47;;;21.74;nan
55679;BME280;41573;51.446;-2.018;2023-07-09T11:41:26;102185.97;;;21.97;nan
55679;BME280;41573;51.446;-2.018;2023-07-09T11:44:02;102181.31;;;21.88;nan
55679;BME280;41573;51.446;-2.018;2023-07-09T11:46:28;102175.88;;;22.20;nan
55679;BME280;41573;51.446;-2.018;2023-07-09T11:48:57;102183.16;;;22.19;nan
55679;BME280;41573;51.446;-2.018;2023-07-09T11:51:34;102176.16;;;22.17;nan
55679;BME280;41573;51.446;-2.018;2023-07-09T11:54:02;102179.06;;;21.93;nan
55679;BME280;41573;51.446;-2.018;2023-07-09T11:56:28;102186.91;;;21.75;nan
55679;BME280;41573;51.446;-2.018;2023-07-09T11:58:56;102192.44;;;21.62;nan
55679;BME280;41573;51.446;-2.018;2023-07-09T12:01:25;102197.41;;;21.23;nan
55679;BME280;41573;51.446;-2.018;2023-07-09T12:03:53;102192.22;;;21.08;nan
55679;BME280;41573;51.446;-2.018;2023-07-09T12:06:27;102186.41;;;20.90;nan
55679;BME280;41573;51.446;-2.018;2023-07-09T12:08:53;102183.56;;;20.80;nan
55679;BME280;41573;51.446;-2.018;2023-07-09T12:13:48;102196.00;;;20.47;nan
55679;BME280;41573;51.446;-2.018;2023-07-09T12:16:36;102191.84;;;20.55;nan
55679;BME280;41573;51.446;-2.018;2023-07-09T12:19:01;102187.97;;;20.70;nan
55679;BME280;41573;51.446;-2.018;2023-07-09T12:21:27;102192.66;;;20.79;nan
55679;BME280;41573;51.446;-2.018;2023-07-09T12:23:54;102182.09;;;20.88;nan
55679;BME280;41573;51.446;-2.018;2023-07-09T12:26:21;102184.47;;;20.92;nan
55679;BME280;41573;51.446;-2.018;2023-07-09T12:28:56;102187.78;;;20.96;nan
55679;BME280;41573;51.446;-2.018;2023-07-09T12:31:29;102175.97;;;21.20;nan
55679;BME280;41573;51.446;-2.018;2023-07-09T12:33:56;102177.44;;;21.46;nan
55679;BME280;41573;51.446;-2.018;2023-07-09T12:36:23;102180.75;;;21.50;nan
55679;BME280;41573;51.446;-2.018;2023-07-09T12:38:51;102185.19;;;21.74;nan
55679;BME280;41573;51.446;-2.018;2023-07-09T12:41:24;102175.63;;;21.91;nan
55679;BME280;41573;51.446;-2.018;2023-07-09T12:43:53;102172.28;;;21.98;nan
55679;BME280;41573;51.446;-2.018;2023-07-09T12:46:20;102170.91;;;22.04;nan
55679;BME280;41573;51.446;-2.018;2023-07-09T12:48:46;102174.53;;;22.14;nan
55679;BME280;41573;51.446;-2.018;2023-07-09T12:51:23;102171.69;;;22.16;nan
55679;BME280;41573;51.446;-2.018;2023-07-09T12:54:15;102173.44;;;22.17;nan
55679;BME280;41573;51.446;-2.018;2023-07-09T12:56:41;102179.34;;;21.90;nan
55679;BME280;41573;51.446;-2.018;2023-07-09T12:59:18;102181.78;;;21.93;nan
55679;BME280;41573;51.446;-2.018;2023-07-09T13:04:19;102170.59;;;22.51;nan
55679;BME280;41573;51.446;-2.018;2023-07-09T13:06:45;102165.34;;;22.59;nan
55679;BME280;41573;51.446;-2.018;2023-07-09T13:09:20;102155.00;;;22.74;nan
55679;BME280;41573;51.446;-2.018;2023-07-09T13:11:47;102146.59;;;22.77;nan
55679;BME280;41573;51.446;-2.018;2023-07-09T13:14:20;102133.13;;;22.66;nan
55679;BME280;41573;51.446;-2.018;2023-07-09T13:16:46;102143.22;;;22.85;nan
55679;BME280;41573;51.446;-2.018;2023-07-09T13:19:12;102131.22;;;22.87;nan
55679;BME280;41573;51.446;-2.018;2023-07-09T13:21:38;102135.75;;;22.77;nan
55679;BME280;41573;51.446;-2.018;2023-07-09T13:24:13;102132.97;;;22.67;nan
55679;BME280;41573;51.446;-2.018;2023-07-09T13:26:39;102126.31;;;22.50;nan
55679;BME280;41573;51.446;-2.018;2023-07-09T13:29:12;102122.56;;;22.51;nan
55679;BME280;41573;51.446;-2.018;2023-07-09T13:31:38;102109.00;;;22.51;nan
55679;BME280;41573;51.446;-2.018;2023-07-09T13:34:07;102115.84;;;22.46;nan